Time;durP1;ratioP1;P1;durP2;ratioP2;P2;SDS_P1;SDS_P2;PMS_P1;PMS_P2;Temp;Humidity;BMP_temperature;BMP_pressure;BME280_temperature;BME280_humidity;BME280_pressure;Samples;Min_cycle;Max_cycle;Signal;HPM_P1;HPM_P2
2022/09/15 00:03:17;;;;;;;;;;;17.40;99.90;;;16.53;100.00;94784.78;10448418;28;2139;-74
2022/09/15 00:08:19;;;;;;;;;;;17.50;99.90;;;16.54;100.00;94780.97;10451039;28;2124;-75
2022/09/15 00:13:22;;;;;;;;;;;17.40;99.90;;;16.59;100.00;94774.53;10446445;28;2018;-75
2022/09/15 00:18:26;;;;;;;;;;;17.50;99.90;;;16.55;100.00;94771.72;10443671;28;2025;-74
2022/09/15 00:23:29;;;;;;;;;;;17.50;99.90;;;16.53;100.00;94768.53;10440950;28;2117;-75
2022/09/15 00:28:31;;;;;;;;;;;17.40;99.90;;;16.48;100.00;94760.63;10449903;28;2378;-74
2022/09/15 00:33:35;;;;;;;;;;;17.60;99.90;;;16.51;100.00;94757.22;10427272;28;2100;-73
2022/09/15 00:38:37;;;;;;;;;;;17.50;99.90;;;16.51;100.00;94754.50;10449768;28;2066;-74
2022/09/15 00:43:40;;;;;;;;;;;17.50;99.90;;;16.68;100.00;94750.81;10445096;28;2124;-77
2022/09/15 00:48:43;;;;;;;;;;;17.60;99.90;;;16.72;100.00;94747.09;10441860;28;1985;-73
2022/09/15 00:53:46;;;;;;;;;;;17.60;99.90;;;16.79;100.00;94743.03;10445256;28;1995;-74
2022/09/15 00:58:48;;;;;;;;;;;17.70;99.90;;;16.61;100.00;94740.53;10445187;28;2068;-75
2022/09/15 01:03:51;;;;;;;;;;;17.50;99.90;;;16.46;100.00;94733.00;10441468;28;2017;-74
2022/09/15 01:08:54;;;;;;;;;;;17.50;99.90;;;16.34;100.00;94741.13;10446873;28;2048;-72
2022/09/15 01:13:57;;;;;;;;;;;17.30;99.90;;;16.23;100.00;94737.28;10440351;28;2149;-71
2022/09/15 01:19:00;;;;;;;;;;;17.20;99.90;;;16.18;100.00;94736.34;10446738;28;2028;-72
2022/09/15 01:24:03;;;;;;;;;;;17.10;99.90;;;16.12;100.00;94740.38;10436686;28;2187;-71
2022/09/15 01:29:06;;;;;;;;;;;17.10;99.90;;;16.19;100.00;94735.22;10448626;28;2072;-72
2022/09/15 01:34:09;;;;;;;;;;;17.10;99.90;;;16.21;100.00;94732.94;10444699;28;2153;-74
2022/09/15 01:39:12;;;;;;;;;;;17.10;99.90;;;16.25;100.00;94732.28;10444030;28;2049;-74
2022/09/15 01:44:15;;;;;;;;;;;16.80;99.90;;;16.19;100.00;94726.28;10444891;28;2176;-74
2022/09/15 01:49:18;;;;;;;;;;;16.40;99.90;;;16.23;100.00;94729.94;10443235;28;2005;-73
2022/09/15 01:54:21;;;;;;;;;;;17.30;99.90;;;16.26;100.00;94725.75;10443121;28;2030;-73
2022/09/15 01:59:24;;;;;;;;;;;17.30;99.90;;;16.42;100.00;94723.97;10445959;28;2018;-73
2022/09/15 02:04:28;;;;;;;;;;;17.30;99.90;;;16.49;100.00;94718.78;10444759;28;2232;-73
2022/09/15 02:09:31;;;;;;;;;;;17.40;99.90;;;16.49;100.00;94722.31;10450476;28;2052;-74
2022/09/15 02:14:35;;;;;;;;;;;17.40;99.90;;;16.61;100.00;94707.19;10459920;28;2091;-74
2022/09/15 02:19:39;;;;;;;;;;;17.60;99.90;;;16.67;100.00;94712.03;10444274;28;2060;-74
2022/09/15 02:24:43;;;;;;;;;;;17.60;99.90;;;16.71;100.00;94707.53;10427820;28;2082;-75
2022/09/15 02:29:46;;;;;;;;;;;17.60;99.90;;;16.77;100.00;94705.41;10448326;28;2009;-73
2022/09/15 02:34:50;;;;;;;;;;;17.70;99.90;;;16.71;100.00;94712.19;10445844;28;2041;-73
2022/09/15 02:39:53;;;;;;;;;;;17.70;99.90;;;16.58;100.00;94711.34;10442564;28;2285;-73
2022/09/15 02:44:57;;;;;;;;;;;17.60;99.90;;;16.52;100.00;94709.19;10440270;28;2066;-75
2022/09/15 02:50:01;;;;;;;;;;;17.60;99.90;;;16.55;100.00;94709.31;10441224;28;2045;-75
2022/09/15 02:55:04;;;;;;;;;;;17.50;99.90;;;16.55;100.00;94711.25;10438473;28;2018;-75
2022/09/15 03:00:14;;;;;;;;;;;17.50;99.90;;;16.50;100.00;94706.81;10440125;28;2098;-73
2022/09/15 03:05:18;;;;;;;;;;;17.50;99.90;;;16.52;100.00;94709.97;10441672;28;2112;-74
2022/09/15 03:10:22;;;;;;;;;;;17.60;99.90;;;16.55;100.00;94713.94;10425709;28;2175;-75
2022/09/15 03:15:32;;;;;;;;;;;17.50;99.90;;;16.42;100.00;94718.56;10425921;28;2258;-75
2022/09/15 03:20:35;;;;;;;;;;;17.50;99.90;;;16.34;100.00;94719.44;10448770;28;2178;-76
2022/09/15 03:25:38;;;;;;;;;;;17.50;99.90;;;16.25;100.00;94721.44;10442187;28;2061;-74
2022/09/15 03:30:42;;;;;;;;;;;17.30;99.90;;;16.33;100.00;94723.28;10446350;28;2136;-73
2022/09/15 03:35:45;;;;;;;;;;;17.20;99.90;;;16.46;100.00;94719.44;10445321;28;2074;-75
2022/09/15 03:40:48;;;;;;;;;;;17.30;99.90;;;16.59;100.00;94721.06;10427591;28;2104;-78
2022/09/15 03:45:54;;;;;;;;;;;17.30;99.90;;;16.71;100.00;94717.59;10444378;28;2015;-75
2022/09/15 03:51:00;;;;;;;;;;;17.50;99.90;;;16.67;100.00;94708.53;10432424;28;2067;-75
2022/09/15 03:56:03;;;;;;;;;;;17.40;99.90;;;16.66;100.00;94721.28;10444748;28;2224;-73
2022/09/15 04:01:07;;;;;;;;;;;17.50;99.90;;;16.68;100.00;94710.91;10442138;28;2149;-73
2022/09/15 04:06:10;;;;;;;;;;;17.50;99.90;;;16.70;100.00;94716.03;10444025;28;2026;-74
2022/09/15 04:11:13;;;;;;;;;;;17.50;99.90;;;16.69;100.00;94720.63;10443342;28;1993;-73
2022/09/15 04:16:17;;;;;;;;;;;17.60;99.90;;;16.69;100.00;94717.13;10455550;28;2171;-75
2022/09/15 04:21:20;;;;;;;;;;;17.50;99.90;;;16.74;100.00;94701.44;10452215;28;2104;-75
2022/09/15 04:26:23;;;;;;;;;;;17.60;99.90;;;16.79;100.00;94699.63;10454932;28;2068;-74
2022/09/15 04:31:26;;;;;;;;;;;17.60;99.90;;;16.82;100.00;94697.03;10450398;28;2049;-74
2022/09/15 04:36:30;;;;;;;;;;;17.60;99.90;;;16.87;100.00;94683.25;10451611;28;2441;-73
2022/09/15 04:41:33;;;;;;;;;;;17.60;99.90;;;16.97;100.00;94690.91;10447470;28;2013;-73
2022/09/15 04:46:36;;;;;;;;;;;17.70;99.90;;;17.00;100.00;94686.75;10446506;28;2099;-73
2022/09/15 04:51:39;;;;;;;;;;;18.10;99.90;;;16.99;100.00;94685.16;10442518;28;2132;-74
2022/09/15 04:56:42;;;;;;;;;;;17.80;99.90;;;17.05;100.00;94667.53;10429859;28;2026;-75
2022/09/15 05:01:50;;;;;;;;;;;17.80;99.90;;;17.06;100.00;94674.53;10431410;28;2053;-74
2022/09/15 05:06:53;;;;;;;;;;;17.80;99.90;;;17.10;100.00;94659.13;10446321;28;2005;-74
2022/09/15 05:11:57;;;;;;;;;;;17.90;99.90;;;17.13;100.00;94661.16;10448313;28;2069;-75
2022/09/15 05:17:00;;;;;;;;;;;17.90;99.90;;;17.22;100.00;94666.47;10446816;28;2072;-75
2022/09/15 05:22:03;;;;;;;;;;;18.00;99.90;;;17.26;100.00;94678.22;10445419;28;2183;-72
2022/09/15 05:27:07;;;;;;;;;;;18.00;99.90;;;17.34;100.00;94685.44;10448155;28;2026;-72
2022/09/15 05:32:10;;;;;;;;;;;18.10;99.90;;;17.23;100.00;94685.13;10445318;28;2073;-71
2022/09/15 05:37:13;;;;;;;;;;;18.10;99.90;;;17.25;100.00;94682.88;10448305;28;2061;-72
2022/09/15 05:42:18;;;;;;;;;;;18.00;99.90;;;17.30;100.00;94689.97;10442950;28;2069;-71
2022/09/15 05:47:22;;;;;;;;;;;18.10;99.90;;;17.34;100.00;94685.44;10445491;28;1997;-71
2022/09/15 05:52:25;;;;;;;;;;;18.10;99.90;;;17.34;100.00;94690.09;10425643;28;2055;-72
2022/09/15 05:57:28;;;;;;;;;;;18.20;99.90;;;17.39;100.00;94687.16;10443286;28;1999;-70
2022/09/15 06:02:32;;;;;;;;;;;18.20;99.90;;;17.49;100.00;94689.38;10447744;28;2052;-73
2022/09/15 06:07:35;;;;;;;;;;;18.20;99.90;;;17.68;100.00;94696.91;10442377;28;2065;-67
2022/09/15 06:12:39;;;;;;;;;;;18.30;99.90;;;17.86;100.00;94702.88;10444608;28;2062;-69
2022/09/15 06:17:42;;;;;;;;;;;18.60;99.90;;;18.07;100.00;94706.22;10440404;28;2010;-69
2022/09/15 06:22:45;;;;;;;;;;;18.70;99.90;;;18.05;100.00;94705.75;10446991;28;2229;-69
2022/09/15 06:27:48;;;;;;;;;;;18.70;99.90;;;18.14;100.00;94706.41;10436119;28;2155;-70
2022/09/15 06:32:51;;;;;;;;;;;18.80;99.90;;;18.13;100.00;94718.41;10438165;28;2378;-69
2022/09/15 06:37:54;;;;;;;;;;;18.80;99.90;;;18.23;100.00;94720.63;10434057;28;2037;-69
2022/09/15 06:42:57;;;;;;;;;;;18.90;99.90;;;18.26;100.00;94725.38;10437081;28;2117;-68
2022/09/15 06:48:01;;;;;;;;;;;19.00;99.90;;;18.34;100.00;94720.91;10433176;28;2048;-68
2022/09/15 06:53:25;;;;;;;;;;;19.00;99.90;;;18.21;100.00;94739.22;10433269;28;2136;-72
2022/09/15 06:58:28;;;;;;;;;;;19.10;99.90;;;18.11;100.00;94747.88;10425586;28;2040;-70
2022/09/15 07:03:31;;;;;;;;;;;19.00;99.90;;;17.79;100.00;94747.75;10430293;28;1939;-70
2022/09/15 07:08:34;;;;;;;;;;;19.10;99.90;;;17.37;100.00;94754.59;10440507;28;2371;-74
2022/09/15 07:13:37;;;;;;;;;;;18.60;99.90;;;17.36;100.00;94755.72;10429803;28;2300;-70
2022/09/15 07:18:40;;;;;;;;;;;18.50;99.90;;;17.43;100.00;94755.94;10434779;28;2326;-73
2022/09/15 07:23:45;;;;;;;;;;;18.40;99.90;;;17.86;100.00;94754.53;10435951;28;2348;-75
2022/09/15 07:28:48;;;;;;;;;;;18.60;99.90;;;18.28;100.00;94755.75;10435558;28;2339;-76
2022/09/15 07:33:52;;;;;;;;;;;18.90;99.90;;;18.62;100.00;94743.41;10431922;28;2622;-73
2022/09/15 07:38:55;;;;;;;;;;;19.10;99.90;;;18.97;100.00;94752.88;10435061;28;2299;-71
2022/09/15 07:43:57;;;;;;;;;;;19.50;99.90;;;19.48;100.00;94761.09;10433124;28;2299;-74
2022/09/15 07:49:02;;;;;;;;;;;;;;;19.92;100.00;94754.31;10435049;28;2347;-68
2022/09/15 07:54:06;;;;;;;;;;;;;;;19.83;100.00;94753.72;10444119;28;2346;-69
2022/09/15 07:59:08;;;;;;;;;;;20.30;99.90;;;20.24;100.00;94752.25;10439352;28;2431;-70
2022/09/15 08:04:12;;;;;;;;;;;20.50;99.90;;;20.13;99.67;94748.50;10437372;28;2405;-70
2022/09/15 08:09:16;;;;;;;;;;;20.60;99.90;;;19.97;100.00;94745.84;10444201;28;2279;-70
2022/09/15 08:14:20;;;;;;;;;;;20.60;99.90;;;19.60;100.00;94752.84;10443908;28;2267;-70
2022/09/15 08:19:23;;;;;;;;;;;20.50;99.90;;;19.68;100.00;94755.38;10424983;28;2234;-70
2022/09/15 08:24:34;;;;;;;;;;;20.30;99.90;;;19.74;100.00;94753.16;10439460;28;2384;-72
2022/09/15 08:29:37;;;;;;;;;;;20.40;99.90;;;19.69;100.00;94746.03;10426920;28;2271;-70
2022/09/15 08:34:40;;;;;;;;;;;20.40;99.90;;;19.85;100.00;94737.81;10438197;28;2363;-69
2022/09/15 08:39:43;;;;;;;;;;;20.50;99.90;;;19.86;100.00;94758.47;10437071;28;2303;-69
2022/09/15 08:44:46;;;;;;;;;;;20.50;99.90;;;20.42;98.86;94752.59;10439808;28;2425;-69
2022/09/15 08:49:48;;;;;;;;;;;20.80;99.90;;;20.59;96.49;94756.03;10438945;28;2273;-69
2022/09/15 08:54:54;;;;;;;;;;;21.00;99.90;;;21.10;92.41;94742.09;10441239;28;2345;-69
2022/09/15 08:59:59;;;;;;;;;;;21.30;99.90;;;21.30;90.41;94738.16;10442080;28;2307;-70
2022/09/15 09:05:02;;;;;;;;;;;21.80;99.90;;;21.22;90.82;94725.50;10439618;28;2290;-69
2022/09/15 09:10:05;;;;;;;;;;;21.90;99.90;;;20.90;91.86;94736.72;10442681;28;2333;-69
2022/09/15 09:15:08;;;;;;;;;;;21.70;99.90;;;20.65;90.59;94740.94;10441499;28;2303;-69
2022/09/15 09:20:11;;;;;;;;;;;21.40;99.90;;;20.51;92.60;94736.81;10422220;28;2393;-69
2022/09/15 09:25:14;;;;;;;;;;;21.30;99.90;;;20.15;94.63;94739.97;10435851;28;2279;-69
2022/09/15 09:30:29;;;;;;;;;;;21.10;99.90;;;20.04;95.01;94733.50;10437601;28;2276;-70
2022/09/15 09:35:32;;;;;;;;;;;20.80;99.90;;;20.00;96.45;94730.72;10437937;28;2343;-71
2022/09/15 09:40:36;;;;;;;;;;;20.80;99.90;;;19.95;96.18;94726.31;10434996;28;2330;-69
2022/09/15 09:45:38;;;;;;;;;;;20.70;99.90;;;19.84;95.93;94733.47;10436905;28;2294;-69
2022/09/15 09:50:42;;;;;;;;;;;20.60;99.90;;;19.86;96.61;94716.78;10435223;28;2287;-67
2022/09/15 09:55:45;;;;;;;;;;;20.60;99.90;;;20.19;94.09;94708.09;10437554;28;2469;-68
2022/09/15 10:00:48;;;;;;;;;;;20.70;99.90;;;21.02;88.27;94714.66;10436591;28;2323;-68
2022/09/15 10:05:51;;;;;;;;;;;21.20;99.90;;;21.61;86.50;94698.00;10431741;28;2318;-68
2022/09/15 10:10:55;;;;;;;;;;;21.90;99.90;;;21.47;84.64;94709.53;10439632;28;2303;-67
2022/09/15 10:15:58;;;;;;;;;;;22.10;99.90;;;21.70;80.01;94712.19;10432381;28;2364;-66
2022/09/15 10:21:01;;;;;;;;;;;22.20;99.90;;;21.70;76.98;94690.31;10435046;28;2403;-68
2022/09/15 10:26:04;;;;;;;;;;;22.10;99.90;;;21.48;77.74;94690.00;10421735;28;2366;-67
2022/09/15 10:31:07;;;;;;;;;;;22.20;99.90;;;21.73;75.87;94689.56;10436537;28;2311;-77
2022/09/15 10:36:09;;;;;;;;;;;22.20;99.90;;;22.38;72.39;94684.50;10436869;28;2332;-74
2022/09/15 10:41:12;;;;;;;;;;;22.60;99.90;;;22.32;70.58;94696.94;10439048;28;2301;-73
2022/09/15 10:46:16;;;;;;;;;;;22.90;99.90;;;21.64;72.23;94708.19;10431004;28;2297;-74
2022/09/15 10:51:21;;;;;;;;;;;22.60;99.90;;;21.34;74.61;94719.88;10435283;28;2316;-68
2022/09/15 10:56:24;;;;;;;;;;;22.10;99.90;;;21.76;71.52;94718.91;10432487;28;2343;-68
2022/09/15 11:01:27;;;;;;;;;;;22.10;99.90;;;21.72;73.34;94709.88;10416692;28;2287;-68
2022/09/15 11:06:30;;;;;;;;;;;22.40;99.90;;;22.22;69.63;94705.06;10435394;28;2324;-68
2022/09/15 11:11:33;;;;;;;;;;;22.60;99.90;;;21.98;71.87;94706.28;10431766;28;2331;-67
2022/09/15 11:16:36;;;;;;;;;;;22.60;99.90;;;22.31;70.78;94713.75;10431309;28;2344;-68
2022/09/15 11:21:39;;;;;;;;;;;22.80;99.90;;;22.62;70.94;94698.81;10432986;28;2346;-72
2022/09/15 11:26:42;;;;;;;;;;;23.10;99.90;;;22.77;68.84;94691.50;10427487;28;2351;-70
2022/09/15 11:31:45;;;;;;;;;;;23.30;99.90;;;22.47;70.65;94684.19;10440113;28;2343;-71
2022/09/15 11:36:48;;;;;;;;;;;23.10;99.90;;;22.51;72.55;94681.50;10442152;28;2379;-69
2022/09/15 11:41:55;;;;;;;;;;;23.10;99.90;;;22.61;70.82;94695.28;10439260;28;2342;-69
2022/09/15 11:46:58;;;;;;;;;;;23.10;99.90;;;22.78;70.26;94698.59;10441925;28;2355;-69
2022/09/15 11:52:01;;;;;;;;;;;23.30;99.90;;;22.64;69.49;94686.31;10444956;28;2360;-69
2022/09/15 11:57:14;;;;;;;;;;;23.20;99.90;;;22.52;69.75;94692.09;10439627;28;2334;-69
2022/09/15 12:02:17;;;;;;;;;;;23.10;99.90;;;22.31;69.32;94689.91;10428218;28;2367;-70
2022/09/15 12:07:22;;;;;;;;;;;23.10;99.90;;;22.33;70.19;94690.31;10442532;28;2304;-70
2022/09/15 12:12:24;;;;;;;;;;;22.70;99.90;;;22.83;68.65;94692.75;10442608;28;2323;-70
2022/09/15 12:17:32;;;;;;;;;;;23.10;99.90;;;23.17;68.05;94694.25;10436871;28;2312;-70
2022/09/15 12:22:36;;;;;;;;;;;23.40;99.90;;;22.55;68.14;94685.84;10437812;28;2293;-70
2022/09/15 12:27:39;;;;;;;;;;;23.40;99.90;;;22.08;72.00;94700.97;10444294;28;2366;-68
2022/09/15 12:32:41;;;;;;;;;;;23.00;99.90;;;21.22;78.86;94706.38;10437805;28;2503;-69
2022/09/15 12:37:44;;;;;;;;;;;22.40;99.90;;;20.75;87.08;94708.38;10422753;28;2224;-69
2022/09/15 12:42:47;;;;;;;;;;;21.80;99.90;;;20.51;88.51;94709.50;10437440;28;2355;-69
2022/09/15 12:47:50;;;;;;;;;;;21.30;99.90;;;20.42;90.32;94703.47;10436122;28;2312;-71
2022/09/15 12:52:53;;;;;;;;;;;21.30;99.90;;;20.89;87.35;94705.09;10437440;28;2339;-70
2022/09/15 12:57:55;;;;;;;;;;;21.20;99.90;;;21.54;81.42;94702.19;10437221;28;2343;-68
2022/09/15 13:02:59;;;;;;;;;;;21.80;99.90;;;21.83;81.54;94691.66;10436602;28;2276;-67
2022/09/15 13:08:02;;;;;;;;;;;22.20;99.90;;;21.70;81.41;94684.84;10440214;28;2453;-68
2022/09/15 13:13:04;;;;;;;;;;;22.30;99.90;;;21.90;81.34;94691.75;10433500;28;2362;-68
2022/09/15 13:18:07;;;;;;;;;;;22.40;99.90;;;22.08;79.44;94676.34;10437935;28;2360;-68
2022/09/15 13:23:10;;;;;;;;;;;22.50;99.90;;;22.21;76.90;94682.38;10442818;28;2362;-68
2022/09/15 13:28:13;;;;;;;;;;;22.70;99.90;;;21.89;78.53;94681.97;10421796;28;2302;-68
2022/09/15 13:33:20;;;;;;;;;;;22.50;99.90;;;21.72;76.28;94669.63;10437474;28;2283;-68
2022/09/15 13:38:23;;;;;;;;;;;22.40;99.90;;;21.47;76.54;94658.34;10438893;28;2339;-68
2022/09/15 13:43:33;;;;;;;;;;;22.30;99.90;;;21.56;75.96;94664.31;10437315;28;2351;-69
2022/09/15 13:48:46;;;;;;;;;;;22.20;99.90;;;21.73;75.79;94662.22;10422693;28;2379;-68
2022/09/15 13:53:49;;;;;;;;;;;22.20;99.90;;;21.71;73.27;94659.06;10436286;28;2385;-68
2022/09/15 13:58:52;;;;;;;;;;;22.50;99.90;;;21.79;73.98;94666.97;10422037;28;2295;-68
2022/09/15 14:04:01;;;;;;;;;;;22.40;99.90;;;21.70;75.75;94668.44;10436913;28;2291;-70
2022/09/15 14:09:04;;;;;;;;;;;22.40;99.90;;;21.62;77.00;94677.69;10438426;28;2354;-69
2022/09/15 14:14:07;;;;;;;;;;;22.20;99.90;;;22.01;73.37;94673.50;10436119;28;2284;-74
2022/09/15 14:19:10;;;;;;;;;;;22.50;99.90;;;21.34;78.12;94672.63;10439372;28;2322;-72
2022/09/15 14:24:12;;;;;;;;;;;22.30;99.90;;;20.14;100.00;94700.19;10432968;28;2406;-68
2022/09/15 14:29:16;;;;;;;;;;;;;;;19.20;100.00;94695.81;10431966;28;2324;-68
2022/09/15 14:34:19;;;;;;;;;;;;;;;19.04;100.00;94713.00;10434046;28;2350;-69
2022/09/15 14:39:22;;;;;;;;;;;;;;;18.92;100.00;94723.19;10434046;28;2408;-70
2022/09/15 14:44:26;;;;;;;;;;;;;;;18.73;100.00;94718.44;10435300;28;2406;-68
2022/09/15 14:49:50;;;;;;;;;;;;;;;18.59;100.00;94716.13;10437184;28;2283;-69
2022/09/15 14:54:52;;;;;;;;;;;19.30;99.90;;;18.01;100.00;94776.38;10437725;28;2209;-70
2022/09/15 14:59:55;;;;;;;;;;;18.30;99.90;;;16.10;100.00;94790.66;10432540;28;2357;-71
2022/09/15 15:04:58;;;;;;;;;;;17.50;99.90;;;15.87;100.00;94801.03;10431622;28;2379;-71
2022/09/15 15:10:02;;;;;;;;;;;16.90;99.90;;;15.81;100.00;94807.78;10436194;28;2295;-70
2022/09/15 15:15:05;;;;;;;;;;;16.70;99.90;;;15.72;100.00;94817.88;10433373;28;2289;-69
2022/09/15 15:20:08;;;;;;;;;;;16.50;99.90;;;15.69;100.00;94824.75;10435248;28;2364;-69
2022/09/15 15:25:11;;;;;;;;;;;16.40;99.90;;;15.66;100.00;94823.50;10432544;28;2800;-70
2022/09/15 15:30:13;;;;;;;;;;;16.40;99.90;;;15.68;100.00;94826.66;10436273;28;2337;-71
2022/09/15 15:35:20;;;;;;;;;;;;;;;15.72;100.00;94834.94;10438719;28;2322;-71
2022/09/15 15:40:22;;;;;;;;;;;16.40;99.90;;;15.70;100.00;94847.19;10429958;28;2338;-70
2022/09/15 15:45:25;;;;;;;;;;;16.40;99.90;;;15.72;100.00;94839.56;10433889;28;2425;-70
2022/09/15 15:50:31;;;;;;;;;;;16.40;99.90;;;15.85;100.00;94850.16;10432445;28;2279;-72
2022/09/15 15:55:33;;;;;;;;;;;16.50;99.90;;;15.90;100.00;94851.84;10434053;28;2386;-69
2022/09/15 16:00:37;;;;;;;;;;;16.60;99.90;;;15.91;100.00;94838.00;10433910;28;2346;-70
2022/09/15 16:05:39;;;;;;;;;;;16.60;99.90;;;15.90;100.00;94841.81;10430644;28;2288;-73
2022/09/15 16:10:42;;;;;;;;;;;16.60;99.90;;;15.83;100.00;94840.75;10445278;28;2269;-70
2022/09/15 16:15:46;;;;;;;;;;;16.60;99.90;;;15.62;100.00;94873.22;10437542;28;2347;-72
2022/09/15 16:20:50;;;;;;;;;;;16.50;99.90;;;15.05;100.00;94881.72;10422379;28;2327;-70
2022/09/15 16:25:53;;;;;;;;;;;16.10;99.90;;;14.74;100.00;94893.56;10448523;28;2340;-71
2022/09/15 16:30:56;;;;;;;;;;;15.60;99.90;;;14.73;100.00;94896.59;10446610;28;2354;-71
2022/09/15 16:36:05;;;;;;;;;;;;;;;14.55;100.00;94903.94;10446853;28;2433;-70
2022/09/15 16:41:08;;;;;;;;;;;15.40;99.90;;;14.60;100.00;94911.88;10431554;28;2563;-73
2022/09/15 16:46:11;;;;;;;;;;;15.40;99.90;;;14.58;100.00;94925.75;10429464;28;2401;-70
2022/09/15 16:51:14;;;;;;;;;;;15.40;99.90;;;14.47;100.00;94927.16;10446451;28;2294;-69
2022/09/15 16:56:33;;;;;;;;;;;;;;;14.12;100.00;94941.72;10424718;28;2368;-72
2022/09/15 17:01:36;;;;;;;;;;;15.00;99.90;;;13.98;100.00;94952.69;10427161;28;2422;-71
2022/09/15 17:06:40;;;;;;;;;;;;;;;13.88;100.00;94950.28;10442568;28;2383;-71
2022/09/15 17:11:43;;;;;;;;;;;14.70;99.90;;;13.83;100.00;94972.84;10428668;28;2455;-71
2022/09/15 17:16:51;;;;;;;;;;;14.80;99.90;;;13.84;100.00;94974.41;10445172;28;2376;-75
2022/09/15 17:21:54;;;;;;;;;;;14.70;99.90;;;13.76;100.00;94983.28;10444230;28;2342;-75
2022/09/15 17:26:58;;;;;;;;;;;;;;;13.71;100.00;94995.03;10442985;28;2349;-73
2022/09/15 17:32:03;;;;;;;;;;;13.60;99.90;;;13.74;100.00;95001.69;10445201;28;2390;-76
2022/09/15 17:37:06;;;;;;;;;;;14.60;99.90;;;13.70;100.00;94995.34;10439987;28;2351;-73
2022/09/15 17:42:08;;;;;;;;;;;14.60;99.90;;;13.60;100.00;95006.41;10448331;28;2353;-74
2022/09/15 17:47:11;;;;;;;;;;;14.60;99.90;;;13.53;100.00;95001.47;10447830;28;2383;-74
2022/09/15 17:52:14;;;;;;;;;;;14.40;99.90;;;13.48;100.00;95009.69;10447903;28;2380;-75
2022/09/15 17:57:17;;;;;;;;;;;14.40;99.90;;;13.59;100.00;95015.63;10453207;28;2413;-77
2022/09/15 18:02:20;;;;;;;;;;;14.40;99.90;;;13.59;100.00;95021.03;10447735;28;2306;-71
2022/09/15 18:07:23;;;;;;;;;;;14.40;99.90;;;13.57;100.00;95018.66;10424246;28;2299;-72
2022/09/15 18:12:26;;;;;;;;;;;14.40;99.90;;;13.55;100.00;95034.38;10440727;28;2374;-76
2022/09/15 18:17:29;;;;;;;;;;;14.40;99.90;;;13.55;100.00;95031.66;10441683;28;2332;-78
2022/09/15 18:22:32;;;;;;;;;;;14.40;99.90;;;13.56;100.00;95029.75;10444234;28;2351;-74
2022/09/15 18:27:35;;;;;;;;;;;14.50;99.90;;;13.61;100.00;95037.72;10444071;28;2335;-74
2022/09/15 18:32:38;;;;;;;;;;;14.40;99.90;;;13.72;100.00;95047.94;10442775;28;2303;-76
2022/09/15 18:37:42;;;;;;;;;;;14.50;99.90;;;13.69;100.00;95045.06;10441386;28;2325;-79
2022/09/15 18:42:45;;;;;;;;;;;14.50;99.90;;;13.69;100.00;95050.47;10442612;28;2354;-74
2022/09/15 18:47:48;;;;;;;;;;;14.50;99.90;;;13.67;100.00;95055.38;10439396;28;2635;-75
2022/09/15 18:52:51;;;;;;;;;;;14.50;99.90;;;13.76;100.00;95067.03;10442384;28;2382;-76
2022/09/15 18:57:54;;;;;;;;;;;14.60;99.90;;;13.78;100.00;95072.91;10438930;28;2417;-75
2022/09/15 19:03:02;;;;;;;;;;;14.60;99.90;;;13.70;100.00;95079.88;10441701;28;2287;-76
2022/09/15 19:08:07;;;;;;;;;;;14.60;99.90;;;13.70;100.00;95079.06;10446875;28;2374;-77
2022/09/15 19:13:10;;;;;;;;;;;14.60;99.90;;;13.63;100.00;95094.91;10444121;28;2370;-75
2022/09/15 19:18:13;;;;;;;;;;;14.50;99.90;;;13.65;100.00;95095.41;10445343;28;2322;-76
2022/09/15 19:23:16;;;;;;;;;;;14.50;99.90;;;13.62;100.00;95096.84;10442394;28;2346;-76
2022/09/15 19:28:21;;;;;;;;;;;14.50;99.90;;;13.64;100.00;95099.22;10439194;28;2354;-75
2022/09/15 19:33:24;;;;;;;;;;;14.50;99.90;;;13.62;100.00;95094.13;10440603;28;2300;-73
2022/09/15 19:38:28;;;;;;;;;;;14.50;99.90;;;13.70;100.00;95097.97;10443380;28;2364;-73
2022/09/15 19:43:31;;;;;;;;;;;14.50;99.90;;;13.68;100.00;95092.09;10445661;28;2298;-72
2022/09/15 19:48:34;;;;;;;;;;;14.50;99.90;;;13.64;100.00;95104.63;10434278;28;2335;-73
2022/09/15 19:53:43;;;;;;;;;;;14.50;99.90;;;13.73;100.00;95113.56;10452027;28;2299;-72
2022/09/15 19:58:46;;;;;;;;;;;14.50;99.90;;;13.70;100.00;95123.09;10446321;28;2378;-72
2022/09/15 20:03:50;;;;;;;;;;;14.60;99.90;;;13.87;100.00;95117.00;10449658;28;2366;-72
2022/09/15 20:08:53;;;;;;;;;;;14.70;99.90;;;13.70;100.00;95117.69;10448081;28;2443;-73
2022/09/15 20:13:55;;;;;;;;;;;14.60;99.90;;;13.60;100.00;95136.03;10444543;28;2302;-73
2022/09/15 20:19:01;;;;;;;;;;;14.60;99.90;;;13.82;100.00;95137.94;10448273;28;2328;-71
2022/09/15 20:24:04;;;;;;;;;;;14.50;99.90;;;13.86;100.00;95130.78;10445620;28;2291;-74
2022/09/15 20:29:07;;;;;;;;;;;14.60;99.90;;;13.71;100.00;95127.38;10448681;28;2385;-71
2022/09/15 20:34:14;;;;;;;;;;;14.70;99.90;;;13.83;100.00;95136.81;10447947;28;2361;-73
2022/09/15 20:39:20;;;;;;;;;;;14.70;99.90;;;13.80;100.00;95135.50;10427840;28;2378;-72
2022/09/15 20:44:23;;;;;;;;;;;14.60;99.90;;;13.70;100.00;95141.19;10447470;28;2381;-71
2022/09/15 20:49:26;;;;;;;;;;;14.50;99.90;;;13.71;100.00;95142.78;10448437;28;2342;-72
2022/09/15 20:54:31;;;;;;;;;;;14.50;99.90;;;13.62;100.00;95147.34;10447812;28;2418;-72
2022/09/15 20:59:35;;;;;;;;;;;14.50;99.90;;;13.60;100.00;95146.84;10452510;28;2339;-70
2022/09/15 21:04:38;;;;;;;;;;;14.40;99.90;;;13.49;100.00;95160.59;10443753;28;2249;-70
2022/09/15 21:09:41;;;;;;;;;;;14.40;99.90;;;13.40;100.00;95153.53;10445688;28;2435;-71
2022/09/15 21:14:43;;;;;;;;;;;14.40;99.90;;;13.43;100.00;95153.72;10442711;28;2342;-74
2022/09/15 21:19:46;;;;;;;;;;;14.30;99.90;;;13.37;100.00;95165.75;10448497;28;2403;-75
2022/09/15 21:24:53;;;;;;;;;;;14.30;99.90;;;13.43;100.00;95164.53;10446598;28;2516;-77
2022/09/15 21:29:56;;;;;;;;;;;14.30;99.90;;;13.41;100.00;95166.72;10443835;28;2381;-76
2022/09/15 21:34:59;;;;;;;;;;;14.30;99.90;;;13.35;100.00;95153.63;10446709;28;2475;-73
2022/09/15 21:40:03;;;;;;;;;;;14.30;99.90;;;13.28;100.00;95164.06;10445075;28;2391;-70
2022/09/15 21:45:07;;;;;;;;;;;14.20;99.90;;;13.31;100.00;95166.16;10437270;28;2319;-72
2022/09/15 21:50:10;;;;;;;;;;;14.20;99.90;;;13.56;100.00;95165.56;10444806;28;2350;-72
2022/09/15 21:55:13;;;;;;;;;;;14.20;99.90;;;13.68;100.00;95165.81;10446808;28;2322;-78
2022/09/15 22:00:16;;;;;;;;;;;14.40;99.90;;;13.68;100.00;95155.00;10442980;28;2350;-77
2022/09/15 22:05:19;;;;;;;;;;;14.60;99.90;;;13.63;100.00;95157.03;10444613;28;2458;-77
2022/09/15 22:10:22;;;;;;;;;;;14.50;99.90;;;13.73;100.00;95162.97;10445482;28;2275;-77
2022/09/15 22:15:25;;;;;;;;;;;14.50;99.90;;;13.87;100.00;95157.50;10448888;28;2350;-77
2022/09/15 22:20:27;;;;;;;;;;;14.40;99.90;;;13.86;100.00;95160.50;10429186;28;2411;-76
2022/09/15 22:25:30;;;;;;;;;;;14.60;99.90;;;13.85;100.00;95154.31;10437431;28;2377;-78
2022/09/15 22:30:33;;;;;;;;;;;14.80;99.90;;;13.82;100.00;95148.75;10444579;28;2324;-77
2022/09/15 22:35:37;;;;;;;;;;;14.70;99.90;;;13.78;100.00;95153.94;10442330;28;2339;-77
2022/09/15 22:40:39;;;;;;;;;;;14.60;99.90;;;13.84;100.00;95147.31;10439367;28;2359;-77
2022/09/15 22:45:43;;;;;;;;;;;14.70;99.90;;;13.89;100.00;95135.59;10438405;28;2466;-77
2022/09/15 22:50:46;;;;;;;;;;;14.70;99.90;;;13.93;100.00;95134.66;10444758;28;2374;-76
2022/09/15 22:55:49;;;;;;;;;;;14.70;99.90;;;13.94;100.00;95130.06;10426861;28;2458;-76
2022/09/15 23:00:52;;;;;;;;;;;14.70;99.90;;;13.91;100.00;95134.16;10444732;28;2418;-77
2022/09/15 23:06:02;;;;;;;;;;;14.80;99.90;;;13.91;100.00;95131.44;10435841;28;2514;-77
2022/09/15 23:11:05;;;;;;;;;;;14.70;99.90;;;13.93;100.00;95118.44;10424472;28;2300;-77